sensor_id;sensor_type;location;lat;lon;timestamp;pressure;altitude;pressure_sealevel;temperature;humidity
71768;BME280;59604;52.138;5.446;2022-12-07T00:01:44;102024.59;;;3.58;100.00
71768;BME280;59604;52.138;5.446;2022-12-07T00:04:13;102012.41;;;3.58;100.00
71768;BME280;59604;52.138;5.446;2022-12-07T00:06:43;102017.84;;;3.55;100.00
71768;BME280;59604;52.138;5.446;2022-12-07T00:09:12;102020.66;;;3.52;100.00
71768;BME280;59604;52.138;5.446;2022-12-07T00:11:39;102026.00;;;3.51;100.00
71768;BME280;59604;52.138;5.446;2022-12-07T00:14:09;102018.53;;;3.46;100.00
71768;BME280;59604;52.138;5.446;2022-12-07T00:16:36;102021.44;;;3.42;100.00
71768;BME280;59604;52.138;5.446;2022-12-07T00:19:04;102013.03;;;3.38;100.00
71768;BME280;59604;52.138;5.446;2022-12-07T00:21:32;102016.78;;;3.34;100.00
71768;BME280;59604;52.138;5.446;2022-12-07T00:24:00;102015.22;;;3.31;100.00
71768;BME280;59604;52.138;5.446;2022-12-07T00:26:30;102013.56;;;3.30;100.00
71768;BME280;59604;52.138;5.446;2022-12-07T00:28:59;102009.53;;;3.26;100.00
71768;BME280;59604;52.138;5.446;2022-12-07T00:31:29;102002.69;;;3.25;100.00
71768;BME280;59604;52.138;5.446;2022-12-07T00:33:57;102002.78;;;3.24;100.00
71768;BME280;59604;52.138;5.446;2022-12-07T00:36:25;101994.97;;;3.24;100.00
71768;BME280;59604;52.138;5.446;2022-12-07T00:38:54;101993.09;;;3.26;100.00
71768;BME280;59604;52.138;5.446;2022-12-07T00:41:23;101994.75;;;3.27;100.00
71768;BME280;59604;52.138;5.446;2022-12-07T00:43:50;101997.97;;;3.30;100.00
71768;BME280;59604;52.138;5.446;2022-12-07T00:46:18;101993.69;;;3.29;100.00
71768;BME280;59604;52.138;5.446;2022-12-07T00:48:45;101990.50;;;3.26;100.00
71768;BME280;59604;52.138;5.446;2022-12-07T00:51:13;101988.84;;;3.25;100.00
71768;BME280;59604;52.138;5.446;2022-12-07T00:53:40;101987.41;;;3.21;100.00
71768;BME280;59604;52.138;5.446;2022-12-07T00:56:16;101984.28;;;3.15;100.00
71768;BME280;59604;52.138;5.446;2022-12-07T00:58:43;101991.47;;;3.12;100.00
71768;BME280;59604;52.138;5.446;2022-12-07T01:01:11;101987.22;;;3.11;100.00
71768;BME280;59604;52.138;5.446;2022-12-07T01:03:38;101984.75;;;3.09;100.00
71768;BME280;59604;52.138;5.446;2022-12-07T01:06:05;101993.38;;;3.10;100.00
71768;BME280;59604;52.138;5.446;2022-12-07T01:08:32;101981.78;;;3.14;100.00
71768;BME280;59604;52.138;5.446;2022-12-07T01:11:04;101985.34;;;3.13;100.00
71768;BME280;59604;52.138;5.446;2022-12-07T01:13:32;101986.19;;;3.13;100.00
71768;BME280;59604;52.138;5.446;2022-12-07T01:16:01;101985.22;;;3.14;100.00
71768;BME280;59604;52.138;5.446;2022-12-07T01:18:28;101983.44;;;3.15;100.00
71768;BME280;59604;52.138;5.446;2022-12-07T01:21:02;101989.69;;;3.12;100.00
71768;BME280;59604;52.138;5.446;2022-12-07T01:23:29;101986.41;;;3.10;100.00
71768;BME280;59604;52.138;5.446;2022-12-07T01:25:57;101981.41;;;3.07;100.00
71768;BME280;59604;52.138;5.446;2022-12-07T01:28:25;101990.25;;;3.05;100.00
71768;BME280;59604;52.138;5.446;2022-12-07T01:31:06;101986.22;;;3.01;100.00
71768;BME280;59604;52.138;5.446;2022-12-07T01:33:35;101984.56;;;3.00;100.00
71768;BME280;59604;52.138;5.446;2022-12-07T01:36:18;101987.50;;;2.95;100.00
71768;BME280;59604;52.138;5.446;2022-12-07T01:38:47;101991.03;;;2.94;100.00
71768;BME280;59604;52.138;5.446;2022-12-07T01:41:15;101993.00;;;2.90;100.00
71768;BME280;59604;52.138;5.446;2022-12-07T01:44:15;101994.16;;;2.86;100.00
71768;BME280;59604;52.138;5.446;2022-12-07T01:51:52;101987.53;;;2.82;100.00
71768;BME280;59604;52.138;5.446;2022-12-07T01:54:22;101985.97;;;2.80;100.00
71768;BME280;59604;52.138;5.446;2022-12-07T01:56:51;101987.88;;;2.78;100.00
71768;BME280;59604;52.138;5.446;2022-12-07T01:59:21;101992.25;;;2.77;100.00
71768;BME280;59604;52.138;5.446;2022-12-07T02:01:52;101993.19;;;2.76;100.00
71768;BME280;59604;52.138;5.446;2022-12-07T02:04:19;101990.69;;;2.75;100.00
71768;BME280;59604;52.138;5.446;2022-12-07T02:06:46;102001.09;;;2.75;100.00
71768;BME280;59604;52.138;5.446;2022-12-07T02:09:13;101994.84;;;2.77;100.00
71768;BME280;59604;52.138;5.446;2022-12-07T02:11:40;101994.09;;;2.75;100.00
71768;BME280;59604;52.138;5.446;2022-12-07T02:14:07;101989.72;;;2.76;100.00
71768;BME280;59604;52.138;5.446;2022-12-07T02:16:51;101987.75;;;2.79;100.00
71768;BME280;59604;52.138;5.446;2022-12-07T02:19:37;101979.94;;;2.79;100.00
71768;BME280;59604;52.138;5.446;2022-12-07T02:22:35;101984.22;;;2.80;100.00
71768;BME280;59604;52.138;5.446;2022-12-07T02:28:07;101981.63;;;2.80;100.00
71768;BME280;59604;52.138;5.446;2022-12-07T02:30:42;101979.63;;;2.84;100.00
71768;BME280;59604;52.138;5.446;2022-12-07T02:33:19;101980.25;;;2.87;100.00
71768;BME280;59604;52.138;5.446;2022-12-07T02:38:55;101974.50;;;2.95;100.00
71768;BME280;59604;52.138;5.446;2022-12-07T02:41:26;101979.34;;;3.00;100.00
71768;BME280;59604;52.138;5.446;2022-12-07T02:43:57;101976.63;;;3.01;100.00
71768;BME280;59604;52.138;5.446;2022-12-07T02:46:29;101978.31;;;3.02;100.00
71768;BME280;59604;52.138;5.446;2022-12-07T02:49:35;101974.63;;;3.05;100.00
71768;BME280;59604;52.138;5.446;2022-12-07T02:52:02;101981.53;;;3.06;100.00
71768;BME280;59604;52.138;5.446;2022-12-07T02:54:29;101974.34;;;3.09;100.00
71768;BME280;59604;52.138;5.446;2022-12-07T03:08:50;101980.56;;;3.07;100.00
71768;BME280;59604;52.138;5.446;2022-12-07T03:13:37;101973.38;;;3.10;100.00
71768;BME280;59604;52.138;5.446;2022-12-07T03:16:15;101971.47;;;3.12;100.00
71768;BME280;59604;52.138;5.446;2022-12-07T03:18:53;101968.78;;;3.14;100.00
71768;BME280;59604;52.138;5.446;2022-12-07T03:21:31;101965.34;;;3.13;100.00
71768;BME280;59604;52.138;5.446;2022-12-07T03:24:00;101970.56;;;3.13;100.00
71768;BME280;59604;52.138;5.446;2022-12-07T03:26:40;101974.09;;;3.12;100.00
71768;BME280;59604;52.138;5.446;2022-12-07T03:29:14;101969.00;;;3.11;100.00
71768;BME280;59604;52.138;5.446;2022-12-07T03:31:48;101970.03;;;3.08;100.00
71768;BME280;59604;52.138;5.446;2022-12-07T03:37:21;101965.66;;;3.09;100.00
71768;BME280;59604;52.138;5.446;2022-12-07T03:40:21;101964.84;;;3.08;100.00
71768;BME280;59604;52.138;5.446;2022-12-07T03:42:43;101961.75;;;3.03;100.00
71768;BME280;59604;52.138;5.446;2022-12-07T03:45:11;101952.50;;;2.99;100.00
71768;BME280;59604;52.138;5.446;2022-12-07T03:47:47;101956.28;;;2.95;100.00
71768;BME280;59604;52.138;5.446;2022-12-07T03:50:28;101959.91;;;2.93;100.00
71768;BME280;59604;52.138;5.446;2022-12-07T03:53:21;101953.88;;;2.92;100.00
71768;BME280;59604;52.138;5.446;2022-12-07T03:55:50;101952.84;;;2.95;100.00
71768;BME280;59604;52.138;5.446;2022-12-07T03:58:20;101963.13;;;2.96;100.00
71768;BME280;59604;52.138;5.446;2022-12-07T04:00:49;101957.19;;;2.94;100.00
71768;BME280;59604;52.138;5.446;2022-12-07T04:03:19;101962.41;;;2.94;100.00
71768;BME280;59604;52.138;5.446;2022-12-07T04:05:45;101958.06;;;2.95;100.00
71768;BME280;59604;52.138;5.446;2022-12-07T04:08:12;101950.94;;;2.97;100.00
71768;BME280;59604;52.138;5.446;2022-12-07T04:10:39;101950.59;;;3.01;100.00
71768;BME280;59604;52.138;5.446;2022-12-07T04:13:06;101949.56;;;3.04;100.00
71768;BME280;59604;52.138;5.446;2022-12-07T04:15:32;101950.28;;;3.06;100.00
71768;BME280;59604;52.138;5.446;2022-12-07T04:17:59;101938.94;;;3.07;100.00
71768;BME280;59604;52.138;5.446;2022-12-07T04:20:25;101945.09;;;3.06;100.00
71768;BME280;59604;52.138;5.446;2022-12-07T04:22:52;101939.03;;;3.05;100.00
71768;BME280;59604;52.138;5.446;2022-12-07T04:25:19;101943.63;;;3.02;100.00
71768;BME280;59604;52.138;5.446;2022-12-07T04:27:45;101943.88;;;2.99;100.00
71768;BME280;59604;52.138;5.446;2022-12-07T04:30:12;101950.13;;;2.96;100.00
71768;BME280;59604;52.138;5.446;2022-12-07T04:32:38;101943.47;;;2.92;100.00
71768;BME280;59604;52.138;5.446;2022-12-07T04:35:05;101949.94;;;2.86;100.00
71768;BME280;59604;52.138;5.446;2022-12-07T04:37:32;101936.22;;;2.84;100.00
71768;BME280;59604;52.138;5.446;2022-12-07T04:39:59;101939.66;;;2.85;100.00
71768;BME280;59604;52.138;5.446;2022-12-07T04:42:26;101937.66;;;2.88;100.00
71768;BME280;59604;52.138;5.446;2022-12-07T04:44:53;101943.69;;;2.89;100.00
71768;BME280;59604;52.138;5.446;2022-12-07T04:47:19;101941.81;;;2.91;100.00
71768;BME280;59604;52.138;5.446;2022-12-07T04:49:46;101950.47;;;2.92;100.00
71768;BME280;59604;52.138;5.446;2022-12-07T04:52:12;101949.50;;;2.93;100.00
71768;BME280;59604;52.138;5.446;2022-12-07T04:54:39;101938.97;;;2.94;100.00
71768;BME280;59604;52.138;5.446;2022-12-07T04:57:05;101937.31;;;2.93;100.00
71768;BME280;59604;52.138;5.446;2022-12-07T04:59:32;101937.44;;;2.92;100.00
71768;BME280;59604;52.138;5.446;2022-12-07T05:01:58;101930.69;;;2.89;100.00
71768;BME280;59604;52.138;5.446;2022-12-07T05:04:25;101934.22;;;2.88;100.00
71768;BME280;59604;52.138;5.446;2022-12-07T05:06:52;101930.06;;;2.85;100.00
71768;BME280;59604;52.138;5.446;2022-12-07T05:09:18;101925.09;;;2.82;100.00
71768;BME280;59604;52.138;5.446;2022-12-07T05:11:45;101922.81;;;2.78;100.00
71768;BME280;59604;52.138;5.446;2022-12-07T05:14:13;101924.69;;;2.76;100.00
71768;BME280;59604;52.138;5.446;2022-12-07T05:16:42;101925.75;;;2.73;100.00
71768;BME280;59604;52.138;5.446;2022-12-07T05:19:10;101921.59;;;2.71;100.00
71768;BME280;59604;52.138;5.446;2022-12-07T05:21:37;101924.41;;;2.67;100.00
71768;BME280;59604;52.138;5.446;2022-12-07T05:24:05;101928.91;;;2.65;100.00
71768;BME280;59604;52.138;5.446;2022-12-07T05:26:32;101922.16;;;2.63;100.00
71768;BME280;59604;52.138;5.446;2022-12-07T05:28:58;101927.47;;;2.61;100.00
71768;BME280;59604;52.138;5.446;2022-12-07T05:31:25;101924.97;;;2.60;100.00
71768;BME280;59604;52.138;5.446;2022-12-07T05:33:52;101928.59;;;2.57;100.00
71768;BME280;59604;52.138;5.446;2022-12-07T05:36:19;101919.16;;;2.56;100.00
71768;BME280;59604;52.138;5.446;2022-12-07T05:38:46;101928.84;;;2.54;100.00
71768;BME280;59604;52.138;5.446;2022-12-07T05:41:16;101924.69;;;2.52;100.00
71768;BME280;59604;52.138;5.446;2022-12-07T05:44:02;101931.13;;;2.46;100.00
71768;BME280;59604;52.138;5.446;2022-12-07T05:46:29;101927.63;;;2.47;100.00
71768;BME280;59604;52.138;5.446;2022-12-07T05:48:55;101934.34;;;2.50;100.00
71768;BME280;59604;52.138;5.446;2022-12-07T05:51:22;101933.44;;;2.51;100.00
71768;BME280;59604;52.138;5.446;2022-12-07T05:53:49;101927.28;;;2.52;100.00
71768;BME280;59604;52.138;5.446;2022-12-07T05:56:15;101934.03;;;2.54;100.00
71768;BME280;59604;52.138;5.446;2022-12-07T05:58:42;101931.44;;;2.54;100.00
71768;BME280;59604;52.138;5.446;2022-12-07T06:01:27;101927.97;;;2.54;100.00
71768;BME280;59604;52.138;5.446;2022-12-07T06:03:54;101935.56;;;2.57;100.00
71768;BME280;59604;52.138;5.446;2022-12-07T06:06:20;101932.97;;;2.57;100.00
71768;BME280;59604;52.138;5.446;2022-12-07T06:08:47;101931.09;;;2.59;100.00
71768;BME280;59604;52.138;5.446;2022-12-07T06:11:13;101934.66;;;2.58;100.00
71768;BME280;59604;52.138;5.446;2022-12-07T06:13:58;101931.19;;;2.57;100.00
71768;BME280;59604;52.138;5.446;2022-12-07T06:16:25;101927.91;;;2.55;100.00
71768;BME280;59604;52.138;5.446;2022-12-07T06:18:51;101929.75;;;2.53;100.00
71768;BME280;59604;52.138;5.446;2022-12-07T06:21:18;101933.91;;;2.56;100.00
71768;BME280;59604;52.138;5.446;2022-12-07T06:23:44;101935.38;;;2.60;100.00
71768;BME280;59604;52.138;5.446;2022-12-07T06:26:11;101948.97;;;2.63;100.00
71768;BME280;59604;52.138;5.446;2022-12-07T06:28:37;101936.59;;;2.67;100.00
71768;BME280;59604;52.138;5.446;2022-12-07T06:31:04;101933.03;;;2.68;100.00
71768;BME280;59604;52.138;5.446;2022-12-07T06:33:37;101933.88;;;2.69;100.00
71768;BME280;59604;52.138;5.446;2022-12-07T06:36:04;101930.22;;;2.71;100.00
71768;BME280;59604;52.138;5.446;2022-12-07T06:38:30;101933.66;;;2.72;100.00
71768;BME280;59604;52.138;5.446;2022-12-07T06:40:57;101933.56;;;2.73;100.00
71768;BME280;59604;52.138;5.446;2022-12-07T06:43:24;101933.56;;;2.73;100.00
71768;BME280;59604;52.138;5.446;2022-12-07T06:45:50;101936.88;;;2.75;100.00
71768;BME280;59604;52.138;5.446;2022-12-07T06:48:17;101940.41;;;2.74;100.00
71768;BME280;59604;52.138;5.446;2022-12-07T06:50:47;101927.75;;;2.70;100.00
71768;BME280;59604;52.138;5.446;2022-12-07T06:53:20;101937.75;;;2.63;100.00
71768;BME280;59604;52.138;5.446;2022-12-07T06:55:46;101943.59;;;2.54;100.00
71768;BME280;59604;52.138;5.446;2022-12-07T06:58:13;101944.94;;;2.47;100.00
71768;BME280;59604;52.138;5.446;2022-12-07T07:00:39;101949.88;;;2.38;100.00
71768;BME280;59604;52.138;5.446;2022-12-07T07:03:07;101937.19;;;2.34;100.00
71768;BME280;59604;52.138;5.446;2022-12-07T07:05:33;101930.75;;;2.27;100.00
71768;BME280;59604;52.138;5.446;2022-12-07T07:08:00;101936.28;;;2.22;100.00
71768;BME280;59604;52.138;5.446;2022-12-07T07:10:46;101939.22;;;2.17;100.00
71768;BME280;59604;52.138;5.446;2022-12-07T07:13:13;101941.19;;;2.14;100.00
71768;BME280;59604;52.138;5.446;2022-12-07T07:15:39;101946.38;;;2.14;100.00
71768;BME280;59604;52.138;5.446;2022-12-07T07:18:06;101941.06;;;2.15;100.00
71768;BME280;59604;52.138;5.446;2022-12-07T07:20:33;101941.19;;;2.14;100.00
71768;BME280;59604;52.138;5.446;2022-12-07T07:23:00;101951.66;;;2.12;100.00
71768;BME280;59604;52.138;5.446;2022-12-07T07:25:27;101940.66;;;2.09;100.00
71768;BME280;59604;52.138;5.446;2022-12-07T07:27:54;101945.03;;;2.08;100.00
71768;BME280;59604;52.138;5.446;2022-12-07T07:30:20;101940.88;;;2.06;100.00
71768;BME280;59604;52.138;5.446;2022-12-07T07:32:47;101928.94;;;2.03;100.00
71768;BME280;59604;52.138;5.446;2022-12-07T07:35:13;101938.69;;;2.00;100.00
71768;BME280;59604;52.138;5.446;2022-12-07T07:37:41;101938.78;;;1.98;100.00
71768;BME280;59604;52.138;5.446;2022-12-07T07:40:08;101932.97;;;1.94;100.00
71768;BME280;59604;52.138;5.446;2022-12-07T07:42:35;101933.09;;;1.93;100.00
71768;BME280;59604;52.138;5.446;2022-12-07T07:45:02;101945.34;;;1.91;100.00
71768;BME280;59604;52.138;5.446;2022-12-07T07:47:29;101935.06;;;1.89;100.00
71768;BME280;59604;52.138;5.446;2022-12-07T07:49:55;101945.66;;;1.86;100.00
71768;BME280;59604;52.138;5.446;2022-12-07T07:52:22;101940.47;;;1.86;100.00
71768;BME280;59604;52.138;5.446;2022-12-07T07:54:48;101945.56;;;1.88;100.00
71768;BME280;59604;52.138;5.446;2022-12-07T07:57:17;101939.44;;;1.89;100.00
71768;BME280;59604;52.138;5.446;2022-12-07T07:59:44;101941.00;;;1.91;100.00
71768;BME280;59604;52.138;5.446;2022-12-07T08:02:15;101946.69;;;1.97;100.00
71768;BME280;59604;52.138;5.446;2022-12-07T08:04:43;101946.50;;;2.00;100.00
71768;BME280;59604;52.138;5.446;2022-12-07T08:07:10;101952.13;;;2.06;100.00
71768;BME280;59604;52.138;5.446;2022-12-07T08:09:38;101958.63;;;2.12;100.00
71768;BME280;59604;52.138;5.446;2022-12-07T08:12:05;101961.03;;;2.15;100.00
71768;BME280;59604;52.138;5.446;2022-12-07T08:14:32;101953.03;;;2.18;100.00
71768;BME280;59604;52.138;5.446;2022-12-07T08:16:59;101957.09;;;2.22;100.00
71768;BME280;59604;52.138;5.446;2022-12-07T08:19:25;101949.78;;;2.27;100.00
71768;BME280;59604;52.138;5.446;2022-12-07T08:21:52;101960.59;;;2.34;100.00
71768;BME280;59604;52.138;5.446;2022-12-07T08:24:19;101968.59;;;2.44;100.00
71768;BME280;59604;52.138;5.446;2022-12-07T08:26:45;101967.94;;;2.53;100.00
71768;BME280;59604;52.138;5.446;2022-12-07T08:29:12;101970.00;;;2.60;100.00
71768;BME280;59604;52.138;5.446;2022-12-07T08:31:38;101969.47;;;2.68;100.00
71768;BME280;59604;52.138;5.446;2022-12-07T08:34:05;101956.63;;;2.78;100.00
71768;BME280;59604;52.138;5.446;2022-12-07T08:36:31;101953.50;;;2.85;100.00
71768;BME280;59604;52.138;5.446;2022-12-07T08:38:58;101959.19;;;2.90;100.00
71768;BME280;59604;52.138;5.446;2022-12-07T08:41:45;101952.72;;;2.96;100.00
71768;BME280;59604;52.138;5.446;2022-12-07T08:44:11;101958.41;;;3.01;100.00
71768;BME280;59604;52.138;5.446;2022-12-07T08:46:46;101962.34;;;3.07;100.00
71768;BME280;59604;52.138;5.446;2022-12-07T08:49:16;101955.16;;;3.10;100.00
71768;BME280;59604;52.138;5.446;2022-12-07T08:51:44;101954.00;;;3.14;100.00
71768;BME280;59604;52.138;5.446;2022-12-07T08:54:13;101940.75;;;3.18;100.00
71768;BME280;59604;52.138;5.446;2022-12-07T08:56:40;101944.19;;;3.18;100.00
71768;BME280;59604;52.138;5.446;2022-12-07T08:59:08;101949.25;;;3.20;100.00
71768;BME280;59604;52.138;5.446;2022-12-07T09:01:35;101951.88;;;3.20;100.00
71768;BME280;59604;52.138;5.446;2022-12-07T09:04:01;101945.84;;;3.19;100.00
71768;BME280;59604;52.138;5.446;2022-12-07T09:06:28;101942.41;;;3.19;100.00
71768;BME280;59604;52.138;5.446;2022-12-07T09:08:58;101945.75;;;3.21;100.00
71768;BME280;59604;52.138;5.446;2022-12-07T09:11:26;101957.06;;;3.20;100.00
71768;BME280;59604;52.138;5.446;2022-12-07T09:13:54;101947.50;;;3.20;100.00
71768;BME280;59604;52.138;5.446;2022-12-07T09:16:21;101951.66;;;3.23;100.00
71768;BME280;59604;52.138;5.446;2022-12-07T09:18:48;101948.00;;;3.25;100.00
71768;BME280;59604;52.138;5.446;2022-12-07T09:21:14;101948.25;;;3.33;100.00
71768;BME280;59604;52.138;5.446;2022-12-07T09:23:42;101951.84;;;3.44;100.00
71768;BME280;59604;52.138;5.446;2022-12-07T09:26:09;101953.53;;;3.56;100.00
71768;BME280;59604;52.138;5.446;2022-12-07T09:28:36;101965.63;;;3.68;100.00
71768;BME280;59604;52.138;5.446;2022-12-07T09:31:04;101959.88;;;3.76;100.00
71768;BME280;59604;52.138;5.446;2022-12-07T09:33:58;101959.63;;;3.79;100.00
71768;BME280;59604;52.138;5.446;2022-12-07T09:36:26;101961.31;;;3.80;100.00
71768;BME280;59604;52.138;5.446;2022-12-07T09:38:53;101957.00;;;3.79;100.00
71768;BME280;59604;52.138;5.446;2022-12-07T09:41:21;101954.31;;;3.80;100.00
71768;BME280;59604;52.138;5.446;2022-12-07T09:43:48;101955.97;;;3.81;100.00
71768;BME280;59604;52.138;5.446;2022-12-07T09:46:16;101953.72;;;3.88;100.00
71768;BME280;59604;52.138;5.446;2022-12-07T09:48:45;101953.28;;;3.94;100.00
71768;BME280;59604;52.138;5.446;2022-12-07T09:51:21;101948.66;;;3.98;100.00
71768;BME280;59604;52.138;5.446;2022-12-07T09:53:51;101945.19;;;3.97;100.00
71768;BME280;59604;52.138;5.446;2022-12-07T09:56:19;101948.75;;;3.96;100.00
71768;BME280;59604;52.138;5.446;2022-12-07T09:58:46;101947.09;;;3.95;100.00
71768;BME280;59604;52.138;5.446;2022-12-07T10:01:15;101947.19;;;3.94;100.00
71768;BME280;59604;52.138;5.446;2022-12-07T10:06:13;101938.47;;;3.95;100.00
71768;BME280;59604;52.138;5.446;2022-12-07T10:08:40;101931.69;;;3.92;100.00
71768;BME280;59604;52.138;5.446;2022-12-07T10:11:11;101938.69;;;3.92;100.00
71768;BME280;59604;52.138;5.446;2022-12-07T10:14:11;101936.91;;;3.92;100.00
71768;BME280;59604;52.138;5.446;2022-12-07T10:16:40;101937.50;;;3.96;100.00
71768;BME280;59604;52.138;5.446;2022-12-07T10:19:19;101922.00;;;4.05;100.00
71768;BME280;59604;52.138;5.446;2022-12-07T10:24:25;101916.72;;;4.50;100.00
71768;BME280;59604;52.138;5.446;2022-12-07T10:26:53;101923.19;;;4.67;100.00
71768;BME280;59604;52.138;5.446;2022-12-07T10:32:01;101917.91;;;4.57;98.97
71768;BME280;59604;52.138;5.446;2022-12-07T10:34:34;101912.56;;;4.48;98.62
71768;BME280;59604;52.138;5.446;2022-12-07T10:39:50;101908.56;;;4.32;98.94
71768;BME280;59604;52.138;5.446;2022-12-07T10:42:25;101902.53;;;4.32;98.99
71768;BME280;59604;52.138;5.446;2022-12-07T10:50:29;101899.84;;;4.66;98.57
71768;BME280;59604;52.138;5.446;2022-12-07T10:53:08;101898.41;;;4.73;98.35
71768;BME280;59604;52.138;5.446;2022-12-07T10:55:48;101899.56;;;4.80;98.46
71768;BME280;59604;52.138;5.446;2022-12-07T11:01:26;101893.06;;;4.74;96.75
71768;BME280;59604;52.138;5.446;2022-12-07T11:09:26;101883.63;;;5.36;97.32
71768;BME280;59604;52.138;5.446;2022-12-07T11:12:36;101887.97;;;5.47;96.20
71768;BME280;59604;52.138;5.446;2022-12-07T11:16:05;101881.66;;;5.49;95.67
71768;BME280;59604;52.138;5.446;2022-12-07T11:29:25;101870.31;;;4.97;94.52
71768;BME280;59604;52.138;5.446;2022-12-07T11:37:36;101861.97;;;4.71;95.62
71768;BME280;59604;52.138;5.446;2022-12-07T11:40:15;101858.88;;;4.77;96.21
71768;BME280;59604;52.138;5.446;2022-12-07T11:43:40;101857.63;;;4.93;96.31
71768;BME280;59604;52.138;5.446;2022-12-07T11:45:47;101847.69;;;5.07;96.69
71768;BME280;59604;52.138;5.446;2022-12-07T11:48:24;101852.19;;;5.17;96.12
71768;BME280;59604;52.138;5.446;2022-12-07T11:50:58;101846.06;;;5.27;96.03
71768;BME280;59604;52.138;5.446;2022-12-07T12:03:45;101839.53;;;5.64;93.60
71768;BME280;59604;52.138;5.446;2022-12-07T12:06:19;101835.78;;;5.66;93.10
71768;BME280;59604;52.138;5.446;2022-12-07T12:08:53;101834.88;;;5.67;93.15
71768;BME280;59604;52.138;5.446;2022-12-07T12:20:52;101813.84;;;5.78;92.74
71768;BME280;59604;52.138;5.446;2022-12-07T12:23:26;101815.91;;;5.85;91.50
71768;BME280;59604;52.138;5.446;2022-12-07T12:25:58;101823.84;;;5.94;91.10
71768;BME280;59604;52.138;5.446;2022-12-07T12:31:07;101817.94;;;6.02;90.83
71768;BME280;59604;52.138;5.446;2022-12-07T12:33:37;101813.94;;;5.98;89.91
71768;BME280;59604;52.138;5.446;2022-12-07T12:46:57;101791.16;;;6.58;87.83
71768;BME280;59604;52.138;5.446;2022-12-07T12:54:37;101786.88;;;6.76;86.74
71768;BME280;59604;52.138;5.446;2022-12-07T12:57:12;101792.66;;;6.61;86.39
71768;BME280;59604;52.138;5.446;2022-12-07T13:00:14;101787.03;;;6.46;86.34
71768;BME280;59604;52.138;5.446;2022-12-07T13:02:47;101793.91;;;6.27;86.68
71768;BME280;59604;52.138;5.446;2022-12-07T13:05:21;101797.59;;;6.15;88.03
71768;BME280;59604;52.138;5.446;2022-12-07T13:21:02;101779.97;;;5.37;88.85
71768;BME280;59604;52.138;5.446;2022-12-07T13:34:42;101758.50;;;5.02;90.93
71768;BME280;59604;52.138;5.446;2022-12-07T13:37:30;101754.16;;;5.13;91.28
71768;BME280;59604;52.138;5.446;2022-12-07T13:40:21;101751.28;;;5.16;91.27
71768;BME280;59604;52.138;5.446;2022-12-07T13:42:57;101747.97;;;5.14;91.43
71768;BME280;59604;52.138;5.446;2022-12-07T13:45:27;101747.16;;;5.13;90.60
71768;BME280;59604;52.138;5.446;2022-12-07T13:48:18;101741.09;;;5.13;90.98
71768;BME280;59604;52.138;5.446;2022-12-07T13:50:53;101744.38;;;5.15;91.19
71768;BME280;59604;52.138;5.446;2022-12-07T13:53:20;101740.13;;;5.14;91.28
71768;BME280;59604;52.138;5.446;2022-12-07T13:55:47;101737.53;;;5.14;91.52
71768;BME280;59604;52.138;5.446;2022-12-07T13:58:20;101740.84;;;5.16;91.70
71768;BME280;59604;52.138;5.446;2022-12-07T14:00:47;101739.88;;;5.17;91.58
71768;BME280;59604;52.138;5.446;2022-12-07T14:05:43;101730.97;;;5.19;91.66
71768;BME280;59604;52.138;5.446;2022-12-07T14:14:00;101729.91;;;5.31;91.66
71768;BME280;59604;52.138;5.446;2022-12-07T14:16:35;101721.09;;;5.32;92.11
71768;BME280;59604;52.138;5.446;2022-12-07T14:19:05;101720.13;;;5.33;91.09
71768;BME280;59604;52.138;5.446;2022-12-07T14:21:33;101722.75;;;5.33;91.21
71768;BME280;59604;52.138;5.446;2022-12-07T14:24:18;101717.53;;;5.33;91.18
71768;BME280;59604;52.138;5.446;2022-12-07T14:26:50;101706.13;;;5.35;91.60
71768;BME280;59604;52.138;5.446;2022-12-07T14:29:31;101711.47;;;5.33;91.30
71768;BME280;59604;52.138;5.446;2022-12-07T14:34:56;101706.41;;;5.31;91.89
71768;BME280;59604;52.138;5.446;2022-12-07T14:37:24;101715.19;;;5.30;92.31
71768;BME280;59604;52.138;5.446;2022-12-07T14:39:50;101705.69;;;5.29;92.38
71768;BME280;59604;52.138;5.446;2022-12-07T14:42:17;101703.06;;;5.29;92.29
71768;BME280;59604;52.138;5.446;2022-12-07T14:44:44;101699.91;;;5.26;92.40
71768;BME280;59604;52.138;5.446;2022-12-07T14:47:11;101697.69;;;5.21;92.80
71768;BME280;59604;52.138;5.446;2022-12-07T14:49:58;101692.88;;;5.17;92.50
71768;BME280;59604;52.138;5.446;2022-12-07T14:52:31;101694.09;;;5.13;92.74
71768;BME280;59604;52.138;5.446;2022-12-07T14:55:23;101693.53;;;5.09;93.34
71768;BME280;59604;52.138;5.446;2022-12-07T14:57:51;101691.84;;;5.08;93.58
71768;BME280;59604;52.138;5.446;2022-12-07T15:00:18;101691.16;;;5.06;93.75
71768;BME280;59604;52.138;5.446;2022-12-07T15:02:47;101697.34;;;5.05;93.58
71768;BME280;59604;52.138;5.446;2022-12-07T15:05:14;101693.94;;;5.04;93.61
71768;BME280;59604;52.138;5.446;2022-12-07T15:07:43;101694.75;;;5.05;93.75
71768;BME280;59604;52.138;5.446;2022-12-07T15:10:20;101695.56;;;5.05;93.23
71768;BME280;59604;52.138;5.446;2022-12-07T15:12:50;101699.16;;;5.04;92.95
71768;BME280;59604;52.138;5.446;2022-12-07T15:15:16;101707.09;;;5.03;92.71
71768;BME280;59604;52.138;5.446;2022-12-07T15:17:43;101709.03;;;5.01;93.03
71768;BME280;59604;52.138;5.446;2022-12-07T15:20:12;101705.69;;;4.99;93.43
71768;BME280;59604;52.138;5.446;2022-12-07T15:22:39;101694.84;;;4.94;92.66
71768;BME280;59604;52.138;5.446;2022-12-07T15:25:06;101679.69;;;4.88;92.68
71768;BME280;59604;52.138;5.446;2022-12-07T15:27:34;101687.91;;;4.83;92.93
71768;BME280;59604;52.138;5.446;2022-12-07T15:30:00;101688.41;;;4.77;92.69
71768;BME280;59604;52.138;5.446;2022-12-07T15:32:27;101694.84;;;4.73;92.83
71768;BME280;59604;52.138;5.446;2022-12-07T15:34:53;101687.97;;;4.72;94.12